Time;durP1;ratioP1;P1;durP2;ratioP2;P2;SDS_P1;SDS_P2;PMS_P1;PMS_P2;Temp;Humidity;BMP_temperature;BMP_pressure;BME280_temperature;BME280_humidity;BME280_pressure;Samples;Min_cycle;Max_cycle;Signal;HPM_P1;HPM_P2
2024/04/11 00:02:10;;;;;;;2.83;0.98;;;16.70;60.40;;;;;;4530035;26;20020;-41
2024/04/11 00:04:53;;;;;;;2.80;1.00;;;16.70;60.40;;;;;;4471803;26;20078;-40
2024/04/11 00:07:33;;;;;;;8.55;1.58;;;16.70;60.40;;;;;;4474529;26;20088;-40
2024/04/11 00:10:17;;;;;;;6.40;1.27;;;16.70;60.30;;;;;;4501801;26;20014;-40
2024/04/11 00:12:58;;;;;;;3.35;1.30;;;16.70;61.00;;;;;;4501296;26;20916;-40
2024/04/11 00:15:43;;;;;;;2.45;1.10;;;16.70;60.10;;;;;;4502104;26;20014;-40
2024/04/11 00:18:25;;;;;;;3.70;1.50;;;16.70;60.00;;;;;;4501013;26;20013;-40
2024/04/11 00:21:08;;;;;;;5.15;1.27;;;16.60;59.90;;;;;;4501632;26;20082;-40
2024/04/11 00:23:48;;;;;;;5.65;1.40;;;16.70;60.00;;;;;;4501213;26;20013;-40
2024/04/11 00:26:31;;;;;;;4.47;1.42;;;16.60;59.90;;;;;;4500579;26;20067;-40
2024/04/11 00:29:11;;;;;;;2.83;1.10;;;16.60;59.80;;;;;;4501311;26;20083;-40
2024/04/11 00:31:57;;;;;;;3.00;1.52;;;16.60;59.80;;;;;;4530751;26;20016;-40
2024/04/11 00:34:38;;;;;;;4.18;1.38;;;16.60;59.70;;;;;;4444718;26;20789;-40
2024/04/11 00:37:24;;;;;;;2.80;1.70;;;16.60;59.60;;;;;;4442707;26;20081;-41
2024/04/11 00:40:05;;;;;;;5.72;1.30;;;16.60;59.50;;;;;;4449523;26;20019;-41
2024/04/11 00:42:48;;;;;;;2.90;1.35;;;16.60;59.50;;;;;;4452503;26;20036;-41
2024/04/11 00:45:30;;;;;;;5.07;1.60;;;16.60;59.50;;;;;;4499460;26;20017;-40
2024/04/11 00:48:17;;;;;;;5.68;0.95;;;16.60;59.50;;;;;;4500602;26;20021;-41
2024/04/11 00:50:58;;;;;;;4.03;1.40;;;16.60;59.60;;;;;;4498973;26;20010;-41
2024/04/11 00:53:42;;;;;;;4.93;1.40;;;16.60;59.70;;;;;;4501194;26;20473;-41
2024/04/11 00:56:23;;;;;;;8.02;1.30;;;16.60;59.70;;;;;;4501405;26;20038;-40
2024/04/11 00:59:08;;;;;;;2.55;1.33;;;16.60;59.80;;;;;;4501037;26;20018;-40
2024/04/11 01:01:48;;;;;;;4.47;1.10;;;16.60;59.90;;;;;;4498739;26;20043;-41
2024/04/11 01:04:35;;;;;;;3.63;1.20;;;16.60;60.90;;;;;;4496708;26;20547;-40
2024/04/11 01:07:16;;;;;;;5.38;1.48;;;16.60;60.10;;;;;;4500892;26;20013;-40
2024/04/11 01:09:58;;;;;;;4.10;1.60;;;16.60;60.10;;;;;;4500260;26;20014;-40
2024/04/11 01:12:38;;;;;;;3.22;1.38;;;16.60;60.20;;;;;;4500156;26;20013;-40
2024/04/11 01:15:21;;;;;;;6.90;2.28;;;16.60;60.20;;;;;;4500895;26;20013;-40
2024/04/11 01:18:01;;;;;;;5.82;1.88;;;16.60;60.20;;;;;;4500746;26;20079;-40
2024/04/11 01:20:47;;;;;;;5.70;1.75;;;16.60;60.90;;;;;;4498821;26;20053;-40
2024/04/11 01:23:30;;;;;;;3.30;1.30;;;16.60;60.40;;;;;;4500790;26;20437;-40
2024/04/11 01:26:13;;;;;;;2.67;1.17;;;16.50;60.30;;;;;;4498788;26;20737;-40
2024/04/11 01:28:53;;;;;;;3.42;1.30;;;16.50;60.30;;;;;;4477008;26;20017;-40
2024/04/11 01:31:37;;;;;;;2.75;1.02;;;16.50;60.50;;;;;;4500250;26;20042;-40
2024/04/11 01:34:20;;;;;;;3.17;1.17;;;16.50;60.70;;;;;;4500567;26;20072;-40
2024/04/11 01:37:01;;;;;;;4.63;1.48;;;16.50;60.80;;;;;;4500154;26;20464;-40
2024/04/11 01:39:46;;;;;;;5.60;1.30;;;16.50;60.80;;;;;;4530179;26;20012;-40
2024/04/11 01:42:27;;;;;;;3.47;1.02;;;16.50;60.70;;;;;;4500904;26;20397;-40
2024/04/11 01:45:10;;;;;;;3.85;1.30;;;16.50;60.80;;;;;;4446200;26;20030;-41
2024/04/11 01:47:50;;;;;;;3.22;1.20;;;16.50;60.60;;;;;;4471315;26;20044;-40
2024/04/11 01:50:33;;;;;;;8.27;1.52;;;16.50;60.80;;;;;;4470805;26;20044;-49
2024/04/11 01:53:13;;;;;;;6.03;1.42;;;16.50;61.80;;;;;;4501025;26;20009;-48
2024/04/11 01:56:00;;;;;;;;;;;16.50;60.90;;;;;;4503268;26;20017;-48
2024/04/11 01:58:41;;;;;;;4.82;1.52;;;16.50;60.90;;;;;;4502725;26;19970;-50
2024/04/11 02:01:25;;;;;;;;;;;16.50;61.40;;;;;;4503192;26;20448;-49
2024/04/11 02:04:06;;;;;;;4.90;1.08;;;16.50;61.40;;;;;;4502928;26;19931;-48
2024/04/11 02:06:51;;;;;;;3.25;1.20;;;16.50;61.60;;;;;;4502784;26;20073;-47
2024/04/11 02:09:31;;;;;;;4.68;1.42;;;16.50;61.50;;;;;;4502891;26;20735;-46
2024/04/11 02:12:17;;;;;;;2.53;0.90;;;16.50;61.40;;;;;;4500780;26;20075;-48
2024/04/11 02:14:58;;;;;;;4.93;1.20;;;16.50;61.40;;;;;;4502787;26;20029;-51
2024/04/11 02:17:40;;;;;;;7.30;1.33;;;16.50;61.40;;;;;;4500579;26;20079;-47
2024/04/11 02:20:21;;;;;;;3.38;0.90;;;16.50;61.50;;;;;;4502985;26;20052;-48
2024/04/11 02:23:04;;;;;;;6.05;1.50;;;16.50;61.40;;;;;;4502286;26;20433;-47
2024/04/11 02:25:45;;;;;;;3.38;0.95;;;16.40;61.50;;;;;;4502660;26;20013;-48
2024/04/11 02:28:30;;;;;;;4.13;1.05;;;16.50;61.40;;;;;;4501986;26;20079;-40
2024/04/11 02:31:11;;;;;;;4.38;1.40;;;16.50;61.40;;;;;;4479413;26;20009;-40
2024/04/11 02:33:55;;;;;;;1.52;0.95;;;16.40;61.40;;;;;;4502718;26;20080;-40
2024/04/11 02:36:35;;;;;;;3.55;1.08;;;16.50;61.80;;;;;;4501917;26;20043;-40
2024/04/11 02:39:20;;;;;;;1.90;0.90;;;16.40;61.80;;;;;;4502182;26;20047;-40
2024/04/11 02:42:00;;;;;;;2.10;1.05;;;16.40;61.80;;;;;;4502559;26;20010;-41
2024/04/11 02:44:47;;;;;;;1.90;0.80;;;16.40;61.80;;;;;;4502267;26;20329;-48
2024/04/11 02:47:27;;;;;;;1.90;0.88;;;16.40;61.90;;;;;;4500532;26;20333;-44
2024/04/11 02:50:15;;;;;;;4.03;0.80;;;16.50;62.00;;;;;;4501450;26;20017;-40
2024/04/11 02:52:55;;;;;;;3.80;1.20;;;16.40;61.90;;;;;;4470826;26;20040;-41
2024/04/11 02:55:40;;;;;;;3.97;1.20;;;16.40;62.00;;;;;;4472648;26;20350;-40
2024/04/11 02:58:20;;;;;;;4.38;1.30;;;16.40;62.00;;;;;;4472905;26;20048;-40
2024/04/11 03:01:07;;;;;;;4.70;1.30;;;16.40;62.00;;;;;;4485786;26;20017;-40
2024/04/11 03:03:47;;;;;;;2.42;0.93;;;16.40;62.00;;;;;;4531114;26;20021;-52
2024/04/11 03:06:31;;;;;;;3.88;1.27;;;16.40;62.20;;;;;;4532106;26;20013;-40
2024/04/11 03:09:11;;;;;;;3.95;1.38;;;16.40;62.30;;;;;;4532071;26;20013;-40
2024/04/11 03:11:56;;;;;;;3.92;1.02;;;16.40;62.40;;;;;;4483696;26;20014;-40
2024/04/11 03:14:38;;;;;;;4.80;1.10;;;16.40;62.40;;;;;;4499401;26;20017;-40
2024/04/11 03:17:24;;;;;;;9.35;2.10;;;16.40;62.40;;;;;;4500316;26;20075;-40
2024/04/11 03:20:05;;;;;;;3.58;1.10;;;16.40;62.50;;;;;;4471871;26;20076;-40
2024/04/11 03:22:48;;;;;;;2.83;1.05;;;16.40;62.60;;;;;;4471498;26;20047;-40
2024/04/11 03:25:30;;;;;;;2.55;1.30;;;16.40;62.70;;;;;;4471530;26;20018;-40
2024/04/11 03:28:14;;;;;;;5.35;1.40;;;16.40;62.80;;;;;;4471428;26;20040;-40
2024/04/11 03:30:56;;;;;;;3.38;1.25;;;16.40;62.70;;;;;;4483100;26;20014;-40
2024/04/11 03:33:42;;;;;;;2.97;1.02;;;16.40;62.80;;;;;;4501207;26;20334;-40
2024/04/11 03:36:22;;;;;;;3.05;1.20;;;16.40;62.90;;;;;;4497887;26;20014;-40
2024/04/11 03:39:11;;;;;;;4.70;1.23;;;16.40;62.90;;;;;;4484274;26;20043;-41
2024/04/11 03:41:54;;;;;;;5.15;0.98;;;16.40;63.00;;;;;;4501066;26;20013;-40
2024/04/11 03:44:39;;;;;;;6.03;1.73;;;16.40;64.00;;;;;;4499613;26;20518;-41
2024/04/11 03:47:23;;;;;;;4.38;1.13;;;16.40;63.30;;;;;;4501229;26;20851;-41
2024/04/11 03:50:09;;;;;;;2.08;1.42;;;16.40;63.30;;;;;;4501191;26;20435;-40
2024/04/11 03:52:53;;;;;;;2.97;1.08;;;16.40;63.40;;;;;;4501741;26;20012;-40
2024/04/11 03:55:43;;;;;;;5.65;1.17;;;16.40;63.40;;;;;;4501295;26;20514;-40
2024/04/11 03:58:26;;;;;;;5.00;1.27;;;16.40;63.40;;;;;;4500574;26;20025;-41
2024/04/11 04:01:12;;;;;;;3.30;1.35;;;16.40;64.40;;;;;;4501028;26;20018;-41
2024/04/11 04:03:53;;;;;;;5.30;1.48;;;16.40;63.60;;;;;;4501056;26;20094;-40
2024/04/11 04:06:42;;;;;;;4.22;1.13;;;16.40;63.70;;;;;;4501523;26;20013;-40
2024/04/11 04:09:22;;;;;;;4.43;1.02;;;16.40;63.80;;;;;;4484034;26;20040;-40
2024/04/11 04:12:05;;;;;;;4.57;1.60;;;16.40;63.90;;;;;;4471405;26;20019;-41
2024/04/11 04:14:45;;;;;;;3.97;1.40;;;16.30;63.80;;;;;;4474003;26;20446;-40
2024/04/11 04:17:28;;;;;;;3.90;1.30;;;16.40;63.90;;;;;;4471371;26;20831;-41
2024/04/11 04:20:09;;;;;;;5.38;1.48;;;16.40;64.00;;;;;;4501068;26;20014;-40
2024/04/11 04:22:54;;;;;;;5.57;1.00;;;16.40;64.20;;;;;;4525894;26;20046;-40
2024/04/11 04:25:38;;;;;;;3.63;1.27;;;16.30;65.20;;;;;;4494090;26;20076;-40
2024/04/11 04:28:23;;;;;;;3.20;1.00;;;16.40;64.40;;;;;;4460365;26;20010;-40
2024/04/11 04:31:15;;;;;;;4.35;2.40;;;16.40;64.60;;;;;;4499545;26;20017;-40
2024/04/11 04:33:59;;;;;;;5.20;0.50;;;16.40;64.80;;;;;;4499315;26;20017;-39
2024/04/11 04:36:41;;;;;;;6.55;0.90;;;16.30;64.80;;;;;;4501142;26;20021;-40
2024/04/11 04:39:41;;;;;;;2.35;0.88;;;16.30;65.00;;;;;;4500847;26;20084;-40
2024/04/11 04:42:23;;;;;;;3.53;1.20;;;16.30;65.00;;;;;;4497481;26;20013;-40
2024/04/11 04:45:09;;;;;;;4.50;1.40;;;16.30;65.00;;;;;;4500402;26;20083;-40
2024/04/11 04:47:49;;;;;;;1.27;0.68;;;16.30;65.00;;;;;;4520911;26;20025;-40
2024/04/11 04:50:32;;;;;;;5.20;1.30;;;16.30;65.00;;;;;;4500786;26;20017;-40
2024/04/11 04:53:12;;;;;;;2.95;1.20;;;16.30;65.00;;;;;;4500598;26;20013;-47
2024/04/11 04:55:58;;;;;;;2.53;1.20;;;16.30;65.10;;;;;;4500157;26;20075;-47
2024/04/11 04:58:39;;;;;;;6.78;1.48;;;16.30;65.20;;;;;;4491734;26;20330;-47
2024/04/11 05:01:23;;;;;;;3.53;1.08;;;16.30;65.30;;;;;;4470518;26;20015;-47
2024/04/11 05:04:05;;;;;;;2.50;1.10;;;16.30;65.30;;;;;;4499721;26;20018;-46
2024/04/11 05:06:49;;;;;;;4.30;2.05;;;16.30;65.50;;;;;;4500886;26;20444;-47
2024/04/11 05:09:29;;;;;;;5.32;1.30;;;16.30;65.50;;;;;;4499615;26;20013;-48
2024/04/11 05:12:15;;;;;;;3.23;1.27;;;16.30;65.70;;;;;;4495375;26;20017;-50
2024/04/11 05:14:55;;;;;;;3.42;1.30;;;16.30;66.00;;;;;;4511252;26;20050;-47
2024/04/11 05:17:39;;;;;;;1.55;0.95;;;16.30;67.30;;;;;;4475433;26;20075;-47
2024/04/11 05:20:27;;;;;;;6.85;2.20;;;16.30;66.70;;;;;;4500881;26;20047;-47
2024/04/11 05:23:10;;;;;;;3.95;1.75;;;16.30;66.70;;;;;;4508600;26;20017;-48
2024/04/11 05:25:51;;;;;;;4.72;1.50;;;16.30;66.70;;;;;;4471166;26;20323;-46
2024/04/11 05:28:40;;;;;;;4.40;1.63;;;16.30;66.80;;;;;;4493554;26;20013;-48
2024/04/11 05:31:25;;;;;;;6.05;1.70;;;16.30;66.90;;;;;;4500452;26;20043;-46
2024/04/11 05:34:13;;;;;;;3.58;1.58;;;16.30;67.00;;;;;;4497430;26;20018;-47
2024/04/11 05:36:54;;;;;;;3.95;1.25;;;16.30;67.10;;;;;;4494079;26;20330;-46
2024/04/11 05:39:37;;;;;;;2.28;1.60;;;16.30;67.30;;;;;;4499387;26;20075;-49
2024/04/11 05:42:17;;;;;;;2.97;1.33;;;16.30;67.30;;;;;;4495388;26;20071;-49
2024/04/11 05:45:02;;;;;;;4.43;1.20;;;16.30;67.50;;;;;;4500274;26;20049;-46
2024/04/11 05:47:43;;;;;;;5.32;1.30;;;16.30;67.50;;;;;;4499709;26;20025;-46
2024/04/11 05:50:26;;;;;;;7.13;2.63;;;16.30;67.60;;;;;;4500033;26;20088;-47
2024/04/11 05:53:08;;;;;;;4.60;1.55;;;16.30;67.60;;;;;;4496719;26;20604;-48
2024/04/11 05:55:50;;;;;;;7.63;1.00;;;16.30;67.80;;;;;;4499885;26;20013;-47
2024/04/11 05:58:31;;;;;;;4.97;2.22;;;16.20;67.80;;;;;;4500823;26;20010;-46
2024/04/11 06:01:17;;;;;;;4.93;2.42;;;16.20;67.90;;;;;;4530035;26;20461;-48
2024/04/11 06:03:57;;;;;;;3.10;1.30;;;16.20;68.10;;;;;;4527968;26;20017;-49
2024/04/11 06:06:40;;;;;;;3.58;1.67;;;16.20;68.10;;;;;;4523487;26;20355;-47
2024/04/11 06:09:20;;;;;;;4.28;1.55;;;16.20;68.20;;;;;;4499268;26;20018;-39
2024/04/11 06:12:03;;;;;;;5.97;1.52;;;16.20;68.30;;;;;;4498727;26;20021;-39
2024/04/11 06:14:43;;;;;;;6.45;1.45;;;16.20;69.30;;;;;;4499443;26;20108;-40
2024/04/11 06:17:29;;;;;;;2.15;1.50;;;16.20;68.50;;;;;;4499516;26;20437;-40
2024/04/11 06:20:15;;;;;;;5.82;1.65;;;16.20;68.70;;;;;;4517050;26;20013;-40
2024/04/11 06:23:08;;;;;;;6.78;2.00;;;16.10;68.70;;;;;;4529253;26;20074;-39
2024/04/11 06:25:48;;;;;;;3.40;1.60;;;16.20;68.70;;;;;;4528094;26;20083;-40
2024/04/11 06:28:33;;;;;;;2.00;1.80;;;16.20;68.90;;;;;;4463442;26;20069;-40
2024/04/11 06:31:14;;;;;;;4.57;1.50;;;16.20;69.00;;;;;;4502472;26;20017;-39
2024/04/11 06:34:00;;;;;;;6.00;1.90;;;16.20;69.10;;;;;;4502696;26;20022;-40
2024/04/11 06:36:41;;;;;;;2.83;1.50;;;16.20;69.30;;;;;;4502038;26;20017;-41
2024/04/11 06:39:24;;;;;;;6.63;2.05;;;16.20;69.30;;;;;;4514212;26;20358;-40
2024/04/11 06:42:13;;;;;;;7.28;2.75;;;16.20;69.40;;;;;;4486076;26;20016;-40
2024/04/11 06:44:57;;;;;;;4.50;1.50;;;16.20;69.50;;;;;;4491777;26;20088;-40
2024/04/11 06:47:37;;;;;;;6.78;1.90;;;16.20;69.50;;;;;;4474087;26;20500;-40
2024/04/11 06:50:27;;;;;;;5.38;1.52;;;16.20;69.50;;;;;;4472422;26;20018;-40
2024/04/11 06:53:08;;;;;;;2.08;1.40;;;16.10;69.50;;;;;;4490331;26;20075;-40
2024/04/11 06:55:52;;;;;;;4.78;1.88;;;16.10;69.70;;;;;;4502368;26;20021;-40
2024/04/11 06:58:34;;;;;;;7.15;1.98;;;16.10;70.60;;;;;;4500759;26;20039;-40
2024/04/11 07:01:18;;;;;;;4.18;1.83;;;16.10;69.80;;;;;;4500207;26;20341;-40
2024/04/11 07:04:03;;;;;;;5.13;1.80;;;16.10;69.90;;;;;;4472776;26;20039;-41
2024/04/11 07:06:49;;;;;;;8.52;2.55;;;16.10;70.10;;;;;;4509494;26;20439;-40
2024/04/11 07:09:37;;;;;;;3.53;1.75;;;16.10;70.20;;;;;;4506113;26;20010;-47
2024/04/11 07:12:28;;;;;;;5.30;2.40;;;16.10;70.30;;;;;;4498779;26;20506;-46
2024/04/11 07:15:12;;;;;;;4.60;2.00;;;16.10;71.70;;;;;;4496960;26;20052;-47
2024/04/11 07:18:01;;;;;;;5.25;2.53;;;16.20;72.10;;;;;;4491362;26;20125;-47
2024/04/11 07:20:48;;;;;;;4.43;2.30;;;16.20;72.50;;;;;;4500326;26;20075;-47
2024/04/11 07:23:35;;;;;;;5.00;2.85;;;16.20;72.70;;;;;;4501086;26;20426;-47
2024/04/11 07:26:15;;;;;;;3.72;1.90;;;16.30;72.80;;;;;;4472279;26;20100;-49
2024/04/11 07:28:59;;;;;;;8.52;2.65;;;16.30;73.20;;;;;;4472127;26;20018;-49
2024/04/11 07:31:41;;;;;;;5.50;2.17;;;16.40;73.10;;;;;;4475244;26;20072;-49
2024/04/11 07:34:25;;;;;;;5.43;2.22;;;16.40;73.00;;;;;;4480639;26;20013;-40
2024/04/11 07:37:06;;;;;;;4.93;2.85;;;16.50;73.00;;;;;;4501928;26;20023;-41
2024/04/11 07:39:53;;;;;;;8.40;2.58;;;16.50;73.00;;;;;;4501496;26;20352;-41
2024/04/11 07:42:48;;;;;;;6.80;1.80;;;16.60;72.90;;;;;;4493020;26;20467;-40
2024/04/11 07:45:30;;;;;;;4.60;2.20;;;16.60;72.90;;;;;;4501019;26;20018;-41
2024/04/11 07:48:12;;;;;;;4.40;2.50;;;16.60;72.80;;;;;;4499909;26;20082;-40
2024/04/11 07:51:05;;;;;;;4.65;2.92;;;16.60;72.80;;;;;;4501959;26;20017;-40
2024/04/11 07:53:46;;;;;;;5.88;2.63;;;16.70;73.30;;;;;;4502158;26;20017;-40
2024/04/11 07:56:35;;;;;;;7.10;2.38;;;16.70;73.60;;;;;;4502108;26;20017;-40
2024/04/11 07:59:15;;;;;;;5.90;3.00;;;16.80;73.80;;;;;;4471919;26;20053;-41
2024/04/11 08:01:58;;;;;;;3.60;2.33;;;16.80;74.00;;;;;;4497812;26;20009;-41
2024/04/11 08:04:38;;;;;;;8.25;3.15;;;16.80;74.20;;;;;;4493643;26;20014;-41
2024/04/11 08:07:21;;;;;;;7.70;2.75;;;16.90;75.10;;;;;;4501331;26;20084;-41
2024/04/11 08:10:01;;;;;;;4.20;2.67;;;16.90;74.20;;;;;;4500723;26;20018;-41
2024/04/11 08:12:47;;;;;;;6.72;2.55;;;16.90;74.10;;;;;;4501633;26;20052;-41
2024/04/11 08:15:28;;;;;;;6.53;2.85;;;16.90;74.30;;;;;;4478481;26;20022;-41
2024/04/11 08:18:11;;;;;;;7.60;3.30;;;16.90;74.30;;;;;;4511448;26;20013;-40
2024/04/11 08:20:51;;;;;;;5.00;3.00;;;16.90;74.40;;;;;;4493694;26;20449;-40
2024/04/11 08:23:34;;;;;;;8.35;3.30;;;16.90;74.60;;;;;;4500357;26;20137;-41
2024/04/11 08:26:21;;;;;;;5.95;2.70;;;16.90;74.80;;;;;;4501018;26;20017;-46
2024/04/11 08:29:04;;;;;;;3.40;2.03;;;16.80;75.00;;;;;;4500775;26;20449;-52
2024/04/11 08:31:47;;;;;;;5.13;3.33;;;16.80;75.20;;;;;;4492460;26;20014;-50
2024/04/11 08:34:30;;;;;;;9.20;4.15;;;16.80;75.50;;;;;;4513262;26;20022;-47
2024/04/11 08:37:14;;;;;;;5.13;3.38;;;16.80;75.70;;;;;;4500874;26;20094;-47
2024/04/11 08:39:54;;;;;;;3.20;2.97;;;16.70;76.70;;;;;;4500514;26;20329;-46
2024/04/11 08:42:39;;;;;;;5.93;3.50;;;16.70;75.90;;;;;;4501555;26;20018;-47
2024/04/11 08:45:25;;;;;;;3.05;2.80;;;16.80;76.00;;;;;;4500379;26;20014;-48
2024/04/11 08:48:10;;;;;;;5.20;3.08;;;16.80;76.60;;;;;;4499517;26;20025;-49
2024/04/11 08:50:53;;;;;;;6.88;2.95;;;16.80;76.80;;;;;;4469245;26;20334;-47
2024/04/11 08:53:36;;;;;;;6.45;3.50;;;16.90;76.80;;;;;;4472707;26;20338;-49
2024/04/11 08:56:27;;;;;;;5.60;3.20;;;16.90;76.60;;;;;;4498093;26;20006;-50
2024/04/11 08:59:12;;;;;;;5.00;3.60;;;17.00;77.20;;;;;;4500803;26;20080;-42
2024/04/11 09:01:55;;;;;;;4.07;3.10;;;17.00;77.40;;;;;;4500397;26;20043;-46
2024/04/11 09:04:39;;;;;;;7.10;3.88;;;17.00;77.50;;;;;;4485291;26;20115;-43
2024/04/11 09:07:21;;;;;;;3.58;3.30;;;17.10;77.40;;;;;;4470705;26;20018;-43
2024/04/11 09:10:05;;;;;;;6.20;3.20;;;17.10;77.10;;;;;;4470994;26;20014;-41
2024/04/11 09:12:47;;;;;;;3.55;3.25;;;17.10;77.20;;;;;;4470915;26;20018;-42
2024/04/11 09:15:32;;;;;;;3.70;3.15;;;17.10;77.70;;;;;;4488633;26;20079;-41
2024/04/11 09:18:24;;;;;;;7.43;3.97;;;17.10;77.60;;;;;;4499891;26;20013;-41
2024/04/11 09:21:08;;;;;;;4.43;3.50;;;17.10;77.60;;;;;;4499681;26;20083;-41
2024/04/11 09:23:51;;;;;;;5.93;3.90;;;17.00;77.50;;;;;;4494664;26;20043;-41
2024/04/11 09:26:34;;;;;;;4.35;3.72;;;17.00;77.50;;;;;;4500358;26;20046;-41
2024/04/11 09:29:17;;;;;;;5.10;3.70;;;17.00;77.60;;;;;;4500085;26;20413;-41
2024/04/11 09:32:03;;;;;;;6.10;3.65;;;16.90;77.80;;;;;;4499893;26;20022;-41
2024/04/11 09:34:50;;;;;;;5.68;3.53;;;16.90;77.90;;;;;;4500055;26;20022;-41
2024/04/11 09:37:39;;;;;;;4.07;3.20;;;16.90;78.10;;;;;;4496733;26;20453;-41
2024/04/11 09:40:26;;;;;;;3.80;3.05;;;16.90;78.30;;;;;;4457851;26;20018;-49
2024/04/11 09:43:15;;;;;;;3.88;3.55;;;16.80;79.20;;;;;;4443001;26;20014;-49
2024/04/11 09:46:04;;;;;;;4.28;3.88;;;16.80;78.40;;;;;;4470579;26;20058;-49
2024/04/11 09:48:49;;;;;;;4.38;3.92;;;16.80;78.50;;;;;;4483936;26;20009;-47
2024/04/11 09:51:35;;;;;;;4.82;4.13;;;16.80;78.60;;;;;;4499404;26;20013;-49
2024/04/11 09:54:19;;;;;;;4.85;4.45;;;16.80;78.80;;;;;;4469969;26;20076;-48
2024/04/11 09:56:59;;;;;;;6.22;4.20;;;16.80;79.10;;;;;;4479238;26;20017;-47
2024/04/11 09:59:42;;;;;;;6.35;4.55;;;16.80;79.10;;;;;;4500569;26;20394;-47
2024/04/11 10:02:24;;;;;;;5.47;4.47;;;16.80;79.30;;;;;;4502616;26;20044;-48
2024/04/11 10:05:08;;;;;;;;;;;16.70;79.30;;;;;;4503218;26;20461;-49
2024/04/11 10:07:58;;;;;;;4.18;3.78;;;16.80;79.40;;;;;;4533317;26;19951;-48
2024/04/11 10:10:42;;;;;;;4.78;4.10;;;16.80;79.30;;;;;;4448813;26;20469;-41
2024/04/11 10:13:23;;;;;;;6.55;4.93;;;16.70;79.30;;;;;;4529664;26;20035;-41
2024/04/11 10:16:14;;;;;;;4.07;3.78;;;16.70;79.40;;;;;;4532728;26;20012;-41
2024/04/11 10:19:04;;;;;;;5.40;4.90;;;16.80;79.60;;;;;;4485973;26;20066;-41
2024/04/11 10:21:52;;;;;;;4.47;4.13;;;16.80;79.60;;;;;;4480266;26;20117;-41
2024/04/11 10:24:37;;;;;;;4.20;3.90;;;16.80;79.60;;;;;;4502410;26;20017;-41
2024/04/11 10:27:20;;;;;;;4.32;3.92;;;16.80;79.60;;;;;;4502063;26;20071;-41
2024/04/11 10:30:05;;;;;;;5.25;4.20;;;16.80;79.40;;;;;;4472909;26;20167;-41
2024/04/11 10:32:51;;;;;;;3.88;3.58;;;16.90;79.60;;;;;;4470233;26;20071;-43
2024/04/11 10:35:33;;;;;;;3.75;3.45;;;16.90;79.80;;;;;;4456556;26;20015;-46
2024/04/11 10:38:26;;;;;;;4.18;3.88;;;16.90;80.00;;;;;;4480590;26;20079;-41
2024/04/11 10:41:12;;;;;;;3.80;3.50;;;16.90;80.20;;;;;;4471432;26;20018;-41
2024/04/11 10:43:56;;;;;;;4.85;3.42;;;16.90;80.20;;;;;;4472321;26;20018;-41
2024/04/11 10:46:38;;;;;;;4.13;3.75;;;16.90;80.30;;;;;;4472966;26;20414;-41
2024/04/11 10:49:28;;;;;;;4.65;4.13;;;16.90;80.30;;;;;;4484498;26;20016;-41
2024/04/11 10:52:10;;;;;;;3.97;3.67;;;16.90;80.30;;;;;;4472308;26;20013;-41
2024/04/11 10:55:12;;;;;;;4.20;3.72;;;16.90;80.40;;;;;;4477045;26;20523;-41
2024/04/11 10:58:08;;;;;;;4.45;3.80;;;17.00;80.60;;;;;;4471448;26;20014;-41
2024/04/11 11:01:09;;;;;;;3.45;3.22;;;17.00;80.60;;;;;;4472102;26;20019;-41
2024/04/11 11:03:50;;;;;;;4.07;3.67;;;17.00;80.60;;;;;;4468680;26;20040;-47
2024/04/11 11:06:37;;;;;;;3.45;3.22;;;16.90;80.60;;;;;;4470446;26;20014;-40
2024/04/11 11:09:18;;;;;;;4.90;4.07;;;17.00;80.60;;;;;;4487787;26;20009;-41
2024/04/11 11:12:02;;;;;;;4.45;3.65;;;17.00;80.60;;;;;;4500603;26;20017;-47
2024/04/11 11:14:46;;;;;;;3.97;3.47;;;17.00;80.70;;;;;;4501575;26;20532;-48
2024/04/11 11:17:31;;;;;;;3.63;3.40;;;17.00;80.70;;;;;;4501220;26;20754;-41
2024/04/11 11:20:13;;;;;;;3.42;3.22;;;17.00;80.80;;;;;;4472380;26;20492;-40
2024/04/11 11:22:56;;;;;;;3.80;3.50;;;16.90;80.80;;;;;;4471495;26;20080;-41
2024/04/11 11:25:38;;;;;;;3.47;3.17;;;17.00;81.30;;;;;;4472292;26;20098;-41
2024/04/11 11:28:22;;;;;;;4.07;3.75;;;17.00;81.40;;;;;;4471136;26;20014;-41
2024/04/11 11:31:15;;;;;;;4.28;3.88;;;17.00;81.50;;;;;;4471720;26;20018;-41
2024/04/11 11:33:56;;;;;;;4.22;3.78;;;17.00;82.90;;;;;;4479550;26;20087;-42
2024/04/11 11:36:40;;;;;;;5.38;3.95;;;17.00;82.10;;;;;;4501505;26;20029;-41
2024/04/11 11:39:25;;;;;;;4.03;3.60;;;17.00;82.30;;;;;;4489725;26;20009;-41
2024/04/11 11:42:23;;;;;;;4.30;3.90;;;17.00;82.40;;;;;;4496482;26;20047;-41
2024/04/11 11:45:08;;;;;;;4.30;3.75;;;17.00;82.50;;;;;;4500952;26;20043;-41
2024/04/11 11:47:57;;;;;;;3.70;3.50;;;17.00;82.40;;;;;;4471855;26;20027;-41
2024/04/11 11:50:40;;;;;;;3.83;3.53;;;17.00;82.40;;;;;;4472341;26;20088;-41
2024/04/11 11:53:32;;;;;;;5.40;4.50;;;17.00;82.40;;;;;;4471255;26;20014;-48
2024/04/11 11:56:15;;;;;;;4.60;4.20;;;17.00;82.40;;;;;;4470511;26;20027;-46
2024/04/11 11:58:57;;;;;;;4.68;4.18;;;17.00;82.40;;;;;;4498685;26;20021;-47
2024/04/11 12:01:51;;;;;;;5.38;4.47;;;17.00;82.50;;;;;;4501101;26;20018;-41
2024/04/11 12:04:33;;;;;;;5.43;4.88;;;17.00;82.60;;;;;;4485801;26;20014;-41
2024/04/11 12:07:18;;;;;;;5.43;4.45;;;17.00;82.60;;;;;;4472050;26;20018;-41
2024/04/11 12:10:12;;;;;;;6.20;4.50;;;17.00;82.70;;;;;;4471834;26;20018;-41
2024/04/11 12:13:09;;;;;;;5.07;4.68;;;17.00;82.70;;;;;;4472913;26;20019;-41
2024/04/11 12:15:51;;;;;;;4.95;4.32;;;17.00;82.70;;;;;;4485594;26;20016;-41
2024/04/11 12:18:34;;;;;;;7.63;5.47;;;17.00;82.70;;;;;;4498751;26;20009;-41
2024/04/11 12:21:25;;;;;;;6.07;5.47;;;17.00;82.90;;;;;;4483328;26;20499;-41
2024/04/11 12:24:09;;;;;;;5.32;4.82;;;17.00;83.00;;;;;;4471149;26;20168;-45
2024/04/11 12:26:52;;;;;;;9.95;8.98;;;16.90;82.70;;;;;;4471547;26;20450;-46
2024/04/11 12:29:35;;;;;;;7.60;5.75;;;16.90;82.80;;;;;;4491795;26;20017;-48
2024/04/11 12:32:18;;;;;;;5.88;5.28;;;17.00;83.40;;;;;;4496593;26;20048;-47
2024/04/11 12:35:01;;;;;;;5.88;5.28;;;17.00;83.50;;;;;;4494353;26;20014;-47
2024/04/11 12:37:46;;;;;;;7.35;5.72;;;17.00;84.10;;;;;;4489277;26;20079;-40
2024/04/11 12:40:39;;;;;;;6.75;5.68;;;17.00;84.50;;;;;;4476443;26;20072;-40
2024/04/11 12:43:20;;;;;;;7.57;5.93;;;17.00;84.40;;;;;;4500364;26;20013;-40
2024/04/11 12:46:03;;;;;;;6.35;5.70;;;17.00;84.10;;;;;;4501244;26;20441;-40
2024/04/11 12:48:46;;;;;;;6.82;5.60;;;17.00;84.30;;;;;;4472886;26;20043;-40
2024/04/11 12:51:30;;;;;;;6.82;5.72;;;17.00;84.20;;;;;;4471114;26;20487;-40
2024/04/11 12:54:15;;;;;;;9.07;6.18;;;17.10;84.50;;;;;;4472465;26;20080;-40
2024/04/11 12:57:02;;;;;;;6.63;5.63;;;17.10;84.70;;;;;;4471320;26;20065;-40
2024/04/11 12:59:46;;;;;;;7.15;5.50;;;17.00;84.60;;;;;;4471336;26;20014;-40
2024/04/11 13:02:34;;;;;;;10.25;6.30;;;17.10;84.60;;;;;;4471348;26;20384;-41
2024/04/11 13:05:14;;;;;;;8.80;5.32;;;17.10;84.60;;;;;;4473647;26;20445;-40
2024/04/11 13:07:59;;;;;;;8.45;5.80;;;17.10;84.50;;;;;;4499782;26;20013;-40
2024/04/11 13:10:49;;;;;;;7.22;6.13;;;17.20;84.40;;;;;;4496693;26;20017;-41
2024/04/11 13:13:32;;;;;;;8.13;6.63;;;17.20;84.30;;;;;;4473948;26;20014;-41
2024/04/11 13:16:12;;;;;;;6.05;5.28;;;17.20;84.00;;;;;;4470565;26;20048;-40
2024/04/11 13:18:55;;;;;;;6.10;5.38;;;17.20;84.00;;;;;;4486246;26;20021;-40
2024/04/11 13:21:38;;;;;;;10.60;5.35;;;17.20;83.80;;;;;;4487355;26;20002;-41
2024/04/11 13:24:24;;;;;;;11.30;6.05;;;17.30;84.60;;;;;;4482380;26;20039;-41
2024/04/11 13:27:07;;;;;;;8.57;5.80;;;17.30;83.70;;;;;;4500378;26;20345;-40
2024/04/11 13:29:52;;;;;;;8.65;5.97;;;17.30;83.60;;;;;;4476700;26;20032;-40
2024/04/11 13:32:33;;;;;;;7.75;6.30;;;17.30;84.40;;;;;;4477829;26;20019;-40
2024/04/11 13:35:36;;;;;;;7.07;5.78;;;17.30;83.50;;;;;;4470737;26;20023;-40
2024/04/11 13:38:21;;;;;;;10.07;6.18;;;17.30;83.70;;;;;;4476859;26;20071;-40
2024/04/11 13:41:45;;;;;;;8.65;5.05;;;17.20;83.50;;;;;;4480162;26;20017;-40
2024/04/11 13:44:31;;;;;;;8.60;4.95;;;17.20;83.30;;;;;;4453712;26;20022;-40
2024/04/11 13:47:18;;;;;;;7.40;4.97;;;17.20;83.40;;;;;;4470246;26;20059;-40
2024/04/11 13:49:58;;;;;;;10.20;5.32;;;17.20;83.40;;;;;;4483333;26;20018;-40
2024/04/11 13:52:41;;;;;;;6.07;5.05;;;17.20;83.70;;;;;;4497171;26;20407;-41
2024/04/11 13:55:21;;;;;;;6.20;5.20;;;17.20;83.80;;;;;;4486791;26;20455;-40
2024/04/11 13:58:06;;;;;;;6.63;4.73;;;17.20;84.30;;;;;;4530472;26;20017;-40
2024/04/11 14:00:50;;;;;;;6.72;4.20;;;17.20;84.60;;;;;;4501094;26;20080;-39
2024/04/11 14:03:44;;;;;;;6.18;4.35;;;17.20;84.80;;;;;;4500145;26;20022;-39
2024/04/11 14:06:27;;;;;;;7.90;5.05;;;17.20;85.00;;;;;;4498369;26;20028;-39
2024/04/11 14:09:17;;;;;;;6.55;4.60;;;17.20;85.90;;;;;;4530070;26;20081;-40
2024/04/11 14:11:58;;;;;;;7.15;4.70;;;17.20;85.30;;;;;;4498888;26;20014;-46
2024/04/11 14:14:41;;;;;;;8.80;4.90;;;17.20;85.50;;;;;;4499556;26;20043;-45
2024/04/11 14:17:28;;;;;;;7.03;5.22;;;17.20;85.50;;;;;;4498116;26;20601;-45